VH314 YWVA-YSSY
Flight info
| Callsign | VH314 |
|---|---|
| Flight time | N/A |
| Altitude | 5500 |
| Route | SSY DCT |
| Aircraft | C152/L-V/N |
Departure
| Time | 2026-05-07 03:06 |
|---|---|
| Airport | Warnervale Airport (YWVA) |
Arrival
| Time | N/A |
|---|---|
| Airport | Sydney Kingsford Smith International Airport (YSSY) |
| Time | Latitude | Longitude | Altitude | Speed | Heading |
|---|---|---|---|---|---|
| 2026-05-07 03:05 | -33.23688 | 151.43285 | 39 ft | 0 kts | 216° |
| 2026-05-07 03:06 | -33.23920 | 151.43069 | 38 ft | 116 kts | 218° |
| 2026-05-07 03:06 | -33.24921 | 151.42127 | 405 ft | 231 kts | 217° |
| 2026-05-07 03:06 | -33.26390 | 151.41330 | 2173 ft | 228 kts | 190° |
| 2026-05-07 03:06 | -33.28038 | 151.41475 | 3065 ft | 250 kts | 179° |
| 2026-05-07 03:07 | -33.29820 | 151.41533 | 3652 ft | 258 kts | 192° |
| 2026-05-07 03:07 | -33.31553 | 151.40987 | 4411 ft | 257 kts | 207° |
| 2026-05-07 03:07 | -33.33209 | 151.41268 | 4287 ft | 300 kts | 122° |
| 2026-05-07 03:07 | -33.32489 | 151.43595 | 3100 ft | 342 kts | 44° |
| 2026-05-07 03:08 | -33.30880 | 151.45374 | 3064 ft | 281 kts | 34° |
| 2026-05-07 03:08 | -33.29564 | 151.46733 | 3577 ft | 226 kts | 36° |
| 2026-05-07 03:08 | -33.28428 | 151.47825 | 3466 ft | 195 kts | 34° |
| 2026-05-07 03:08 | -33.27458 | 151.48772 | 3262 ft | 163 kts | 34° |
| 2026-05-07 03:09 | -33.26553 | 151.49669 | 3014 ft | 194 kts | 34° |
| 2026-05-07 03:09 | -33.25335 | 151.50814 | 2976 ft | 253 kts | 34° |
| 2026-05-07 03:09 | -33.23801 | 151.52212 | 3064 ft | 298 kts | 33° |
| 2026-05-07 03:09 | -33.22021 | 151.53809 | 3220 ft | 336 kts | 33° |
| 2026-05-07 03:10 | -33.19884 | 151.54766 | 3512 ft | 329 kts | 347° |
| 2026-05-07 03:10 | -33.17976 | 151.53496 | 4115 ft | 323 kts | 318° |
| 2026-05-07 03:10 | -33.16217 | 151.51682 | 4121 ft | 343 kts | 301° |
| 2026-05-07 03:10 | -33.16828 | 151.49319 | 3596 ft | 345 kts | 221° |
| 2026-05-07 03:11 | -33.18671 | 151.47580 | 1093 ft | 341 kts | 221° |
| 2026-05-07 03:11 | -33.20419 | 151.45861 | 771 ft | 294 kts | 218° |
| 2026-05-07 03:11 | -33.21882 | 151.44805 | 626 ft | 199 kts | 212° |
| 2026-05-07 03:11 | -33.22865 | 151.44020 | 372 ft | 141 kts | 220° |
| 2026-05-07 03:12 | -33.23254 | 151.43675 | 111 ft | 0 kts | 220° |